BOC621 EGNX-KMIA
Flight info
| Callsign | BOC621 |
|---|---|
| Flight time | N/A |
| Altitude | 32000 |
| Route | TNT Q4 WAL L10 PENIL M144 BAGSO DCT RINUS DCT MALOT/M083F320 DCT 53N020W 52N030W 51N040W 50N050W DCT ELSIR/N0482F320 N398B TUSKY DCT FOXBO DCT RIFLE DCT HEADI Q97 KALDA Q101 SKARP Y313 HOAGG BNFSH3 |
| Aircraft | B77L/H-SDE1E2E3FGHIJ2J3J4J5M1RWXY/LB1D1 |
Departure
| Time | 2026-04-30 21:37 |
|---|---|
| Airport | East Midlands Airport (EGNX) |
Arrival
| Time | N/A |
|---|---|
| Airport | Miami International Airport (KMIA) |
| Time | Latitude | Longitude | Altitude | Speed | Heading |
|---|---|---|---|---|---|
| 2026-04-30 21:12 | 52.82744 | -1.34771 | 319 ft | 0 kts | 178° |
| 2026-04-30 21:28 | 52.82767 | -1.34771 | 319 ft | 4 kts | 179° |
| 2026-04-30 21:28 | 52.82793 | -1.34769 | 318 ft | 4 kts | 196° |
| 2026-04-30 21:28 | 52.82828 | -1.34715 | 318 ft | 3 kts | 265° |
| 2026-04-30 21:29 | 52.82829 | -1.34700 | 318 ft | 0 kts | 268° |
| 2026-04-30 21:32 | 52.82828 | -1.34756 | 319 ft | 12 kts | 268° |
| 2026-04-30 21:32 | 52.82826 | -1.34846 | 319 ft | 11 kts | 268° |
| 2026-04-30 21:32 | 52.82825 | -1.34952 | 319 ft | 9 kts | 269° |
| 2026-04-30 21:32 | 52.82823 | -1.35053 | 320 ft | 9 kts | 269° |
| 2026-04-30 21:33 | 52.82821 | -1.35155 | 318 ft | 9 kts | 267° |
| 2026-04-30 21:33 | 52.82878 | -1.35243 | 319 ft | 9 kts | 45° |
| 2026-04-30 21:33 | 52.82893 | -1.35118 | 320 ft | 14 kts | 89° |
| 2026-04-30 21:34 | 52.82895 | -1.35033 | 320 ft | 0 kts | 88° |
| 2026-04-30 21:34 | 52.82895 | -1.35023 | 319 ft | 5 kts | 88° |
| 2026-04-30 21:34 | 52.82926 | -1.34939 | 318 ft | 8 kts | 13° |
| 2026-04-30 21:35 | 52.82943 | -1.34938 | 318 ft | 0 kts | 360° |
| 2026-04-30 21:35 | 52.82949 | -1.34938 | 320 ft | 5 kts | 360° |
| 2026-04-30 21:35 | 52.83045 | -1.34927 | 320 ft | 18 kts | 26° |
| 2026-04-30 21:35 | 52.83064 | -1.34785 | 317 ft | 0 kts | 90° |
| 2026-04-30 21:36 | 52.83064 | -1.34780 | 318 ft | 5 kts | 90° |
| 2026-04-30 21:37 | 52.83126 | -1.31196 | 406 ft | 194 kts | 89° |
| 2026-04-30 21:37 | 52.83112 | -1.29015 | 1154 ft | 191 kts | 95° |
| 2026-04-30 21:37 | 52.82979 | -1.26780 | 1713 ft | 199 kts | 96° |
| 2026-04-30 21:37 | 52.83058 | -1.24452 | 1997 ft | 217 kts | 70° |
| 2026-04-30 21:38 | 52.84050 | -1.22424 | 2086 ft | 243 kts | 29° |
| 2026-04-30 21:38 | 52.85732 | -1.21874 | 2412 ft | 261 kts | 350° |
| 2026-04-30 21:38 | 52.87302 | -1.23391 | 2605 ft | 271 kts | 302° |
| 2026-04-30 21:38 | 52.88264 | -1.26041 | 3319 ft | 267 kts | 298° |
| 2026-04-30 21:39 | 52.89278 | -1.28665 | 3926 ft | 274 kts | 303° |
| 2026-04-30 21:39 | 52.90387 | -1.31264 | 4599 ft | 278 kts | 304° |
| 2026-04-30 21:39 | 52.91505 | -1.33857 | 5303 ft | 281 kts | 304° |
| 2026-04-30 21:39 | 52.92642 | -1.36499 | 5978 ft | 282 kts | 304° |
| 2026-04-30 21:40 | 52.93780 | -1.39169 | 6576 ft | 285 kts | 303° |
| 2026-04-30 21:40 | 52.94925 | -1.41878 | 7250 ft | 288 kts | 303° |
| 2026-04-30 21:40 | 52.96077 | -1.44617 | 7921 ft | 291 kts | 303° |
| 2026-04-30 21:40 | 52.97239 | -1.47387 | 8550 ft | 294 kts | 303° |
| 2026-04-30 21:41 | 52.98411 | -1.50191 | 9204 ft | 297 kts | 303° |
| 2026-04-30 21:41 | 52.99593 | -1.53023 | 9834 ft | 300 kts | 303° |
| 2026-04-30 21:41 | 53.00785 | -1.55881 | 10454 ft | 302 kts | 303° |
| 2026-04-30 21:41 | 53.01986 | -1.58769 | 11079 ft | 305 kts | 303° |
| 2026-04-30 21:42 | 53.03194 | -1.61681 | 11678 ft | 307 kts | 303° |
| 2026-04-30 21:42 | 53.04411 | -1.64613 | 12265 ft | 309 kts | 302° |
| 2026-04-30 21:42 | 53.05462 | -1.67731 | 12760 ft | 310 kts | 292° |
| 2026-04-30 21:42 | 53.06220 | -1.71099 | 13298 ft | 312 kts | 285° |
| 2026-04-30 21:43 | 53.06815 | -1.74583 | 13863 ft | 314 kts | 283° |
| 2026-04-30 21:43 | 53.07376 | -1.78096 | 14422 ft | 316 kts | 283° |
| 2026-04-30 21:43 | 53.07944 | -1.81646 | 14944 ft | 319 kts | 283° |
| 2026-04-30 21:43 | 53.08525 | -1.85221 | 15475 ft | 322 kts | 283° |
| 2026-04-30 21:44 | 53.09117 | -1.88821 | 16007 ft | 323 kts | 283° |
| 2026-04-30 21:44 | 53.09719 | -1.92441 | 16511 ft | 326 kts | 284° |
| 2026-04-30 21:44 | 53.10329 | -1.96092 | 17004 ft | 329 kts | 284° |
| 2026-04-30 21:44 | 53.10943 | -1.99771 | 17488 ft | 331 kts | 284° |
| 2026-04-30 21:45 | 53.11562 | -2.03468 | 17959 ft | 333 kts | 284° |
| 2026-04-30 21:45 | 53.12189 | -2.07204 | 18417 ft | 336 kts | 284° |
| 2026-04-30 21:45 | 53.12820 | -2.10978 | 18789 ft | 343 kts | 283° |
| 2026-04-30 21:45 | 53.13469 | -2.14888 | 18888 ft | 358 kts | 284° |
| 2026-04-30 21:46 | 53.14171 | -2.18953 | 19009 ft | 373 kts | 287° |
| 2026-04-30 21:46 | 53.15163 | -2.23048 | 19121 ft | 389 kts | 295° |
| 2026-04-30 21:46 | 53.16392 | -2.27157 | 19233 ft | 404 kts | 295° |
| 2026-04-30 21:46 | 53.17686 | -2.31413 | 19363 ft | 419 kts | 295° |
| 2026-04-30 21:47 | 53.19018 | -2.35796 | 19576 ft | 430 kts | 295° |
| 2026-04-30 21:47 | 53.20372 | -2.40296 | 19923 ft | 437 kts | 295° |
| 2026-04-30 21:47 | 53.21716 | -2.44797 | 20381 ft | 441 kts | 295° |
| 2026-04-30 21:47 | 53.23078 | -2.49391 | 20943 ft | 443 kts | 295° |
| 2026-04-30 21:48 | 53.24444 | -2.54014 | 21425 ft | 445 kts | 295° |
| 2026-04-30 21:48 | 53.25816 | -2.58673 | 21908 ft | 449 kts | 295° |
| 2026-04-30 21:48 | 53.27196 | -2.63364 | 22365 ft | 452 kts | 294° |
| 2026-04-30 21:48 | 53.28587 | -2.68092 | 22803 ft | 455 kts | 294° |
| 2026-04-30 21:49 | 53.29983 | -2.72860 | 23240 ft | 458 kts | 293° |
| 2026-04-30 21:49 | 53.31215 | -2.77777 | 23664 ft | 460 kts | 289° |
| 2026-04-30 21:49 | 53.32334 | -2.82795 | 24090 ft | 463 kts | 288° |
| 2026-04-30 21:49 | 53.33459 | -2.87858 | 24506 ft | 465 kts | 288° |
| 2026-04-30 21:50 | 53.34596 | -2.92939 | 24918 ft | 468 kts | 289° |
| 2026-04-30 21:50 | 53.35747 | -2.98048 | 25333 ft | 470 kts | 289° |
| 2026-04-30 21:50 | 53.36907 | -3.03186 | 25745 ft | 472 kts | 289° |
| 2026-04-30 21:50 | 53.38074 | -3.08333 | 26136 ft | 475 kts | 290° |
| 2026-04-30 21:51 | 53.39456 | -3.13384 | 26502 ft | 479 kts | 296° |
| 2026-04-30 21:51 | 53.41138 | -3.18218 | 26873 ft | 483 kts | 302° |
| 2026-04-30 21:51 | 53.43091 | -3.22812 | 27205 ft | 485 kts | 304° |
| 2026-04-30 21:51 | 53.45087 | -3.27396 | 27553 ft | 488 kts | 304° |
| 2026-04-30 21:52 | 53.47086 | -3.32009 | 27924 ft | 490 kts | 304° |
| 2026-04-30 21:52 | 53.49077 | -3.36654 | 28290 ft | 491 kts | 304° |
| 2026-04-30 21:52 | 53.51064 | -3.41327 | 28614 ft | 493 kts | 304° |
| 2026-04-30 21:52 | 53.53051 | -3.46033 | 28924 ft | 494 kts | 304° |
| 2026-04-30 21:53 | 53.55042 | -3.50762 | 29223 ft | 496 kts | 304° |
| 2026-04-30 21:53 | 53.57035 | -3.55501 | 29582 ft | 496 kts | 304° |
| 2026-04-30 21:53 | 53.58989 | -3.60257 | 29984 ft | 493 kts | 300° |
| 2026-04-30 21:53 | 53.60556 | -3.65364 | 30335 ft | 490 kts | 290° |
| 2026-04-30 21:54 | 53.61597 | -3.70796 | 30724 ft | 486 kts | 282° |
| 2026-04-30 21:54 | 53.62169 | -3.76381 | 31090 ft | 482 kts | 272° |
| 2026-04-30 21:54 | 53.62337 | -3.82002 | 31424 ft | 481 kts | 271° |
| 2026-04-30 21:54 | 53.62510 | -3.87626 | 31713 ft | 481 kts | 272° |